sensor_id;sensor_type;location;lat;lon;timestamp;temperature;humidity
17954;DHT22;9102;53.548;9.926;2022-07-29T00:00:12;15.10;99.90
17954;DHT22;9102;53.548;9.926;2022-07-29T00:02:39;15.10;99.90
17954;DHT22;9102;53.548;9.926;2022-07-29T00:05:08;15.10;99.90
17954;DHT22;9102;53.548;9.926;2022-07-29T00:07:36;15.10;99.90
17954;DHT22;9102;53.548;9.926;2022-07-29T00:10:04;15.10;99.90
17954;DHT22;9102;53.548;9.926;2022-07-29T00:12:30;15.10;99.90
17954;DHT22;9102;53.548;9.926;2022-07-29T00:14:57;15.10;99.90
17954;DHT22;9102;53.548;9.926;2022-07-29T00:17:24;15.00;99.90
17954;DHT22;9102;53.548;9.926;2022-07-29T00:19:52;15.00;99.90
17954;DHT22;9102;53.548;9.926;2022-07-29T00:22:19;15.00;99.90
17954;DHT22;9102;53.548;9.926;2022-07-29T00:24:48;15.00;99.90
17954;DHT22;9102;53.548;9.926;2022-07-29T00:27:16;15.00;99.90
17954;DHT22;9102;53.548;9.926;2022-07-29T00:29:43;15.00;99.90
17954;DHT22;9102;53.548;9.926;2022-07-29T00:32:10;15.00;99.90
17954;DHT22;9102;53.548;9.926;2022-07-29T00:34:37;15.00;99.90
17954;DHT22;9102;53.548;9.926;2022-07-29T00:37:21;15.00;99.90
17954;DHT22;9102;53.548;9.926;2022-07-29T00:39:50;15.00;99.90
17954;DHT22;9102;53.548;9.926;2022-07-29T00:42:17;14.90;99.90
17954;DHT22;9102;53.548;9.926;2022-07-29T00:44:44;14.90;99.90
17954;DHT22;9102;53.548;9.926;2022-07-29T00:47:11;14.90;99.90
17954;DHT22;9102;53.548;9.926;2022-07-29T00:49:38;14.80;99.90
17954;DHT22;9102;53.548;9.926;2022-07-29T00:52:06;14.80;99.90
17954;DHT22;9102;53.548;9.926;2022-07-29T00:54:34;14.90;99.90
17954;DHT22;9102;53.548;9.926;2022-07-29T00:57:05;14.80;99.90
17954;DHT22;9102;53.548;9.926;2022-07-29T00:59:32;14.80;99.90
17954;DHT22;9102;53.548;9.926;2022-07-29T01:02:00;14.90;99.90
17954;DHT22;9102;53.548;9.926;2022-07-29T01:04:26;14.90;99.90
17954;DHT22;9102;53.548;9.926;2022-07-29T01:06:55;14.90;99.90
17954;DHT22;9102;53.548;9.926;2022-07-29T01:09:22;14.80;99.90
17954;DHT22;9102;53.548;9.926;2022-07-29T01:11:50;14.90;99.90
17954;DHT22;9102;53.548;9.926;2022-07-29T01:14:18;14.90;99.90
17954;DHT22;9102;53.548;9.926;2022-07-29T01:16:52;14.90;99.90
17954;DHT22;9102;53.548;9.926;2022-07-29T01:19:48;14.90;99.90
17954;DHT22;9102;53.548;9.926;2022-07-29T01:22:31;14.90;99.90
17954;DHT22;9102;53.548;9.926;2022-07-29T01:25:20;14.90;99.90
17954;DHT22;9102;53.548;9.926;2022-07-29T01:28:06;14.90;99.90
17954;DHT22;9102;53.548;9.926;2022-07-29T01:30:38;14.90;99.90
17954;DHT22;9102;53.548;9.926;2022-07-29T01:33:10;15.00;99.90
17954;DHT22;9102;53.548;9.926;2022-07-29T01:35:59;14.90;99.90
17954;DHT22;9102;53.548;9.926;2022-07-29T01:38:28;14.90;99.90
17954;DHT22;9102;53.548;9.926;2022-07-29T01:41:01;14.90;99.90
17954;DHT22;9102;53.548;9.926;2022-07-29T01:43:36;14.90;99.90
17954;DHT22;9102;53.548;9.926;2022-07-29T01:46:11;14.90;99.90
17954;DHT22;9102;53.548;9.926;2022-07-29T01:48:43;14.90;99.90
17954;DHT22;9102;53.548;9.926;2022-07-29T01:51:15;14.90;99.90
17954;DHT22;9102;53.548;9.926;2022-07-29T01:53:47;14.90;99.90
17954;DHT22;9102;53.548;9.926;2022-07-29T01:56:16;14.90;99.90
17954;DHT22;9102;53.548;9.926;2022-07-29T01:58:45;14.90;99.90
17954;DHT22;9102;53.548;9.926;2022-07-29T02:01:16;14.80;99.90
17954;DHT22;9102;53.548;9.926;2022-07-29T02:03:45;14.80;99.90
17954;DHT22;9102;53.548;9.926;2022-07-29T02:06:15;14.80;99.90
17954;DHT22;9102;53.548;9.926;2022-07-29T02:08:43;14.80;99.90
17954;DHT22;9102;53.548;9.926;2022-07-29T02:11:11;14.90;99.90
17954;DHT22;9102;53.548;9.926;2022-07-29T02:13:38;14.90;99.90
17954;DHT22;9102;53.548;9.926;2022-07-29T02:16:07;14.80;99.90
17954;DHT22;9102;53.548;9.926;2022-07-29T02:18:37;14.80;99.90
17954;DHT22;9102;53.548;9.926;2022-07-29T02:21:05;14.80;99.90
17954;DHT22;9102;53.548;9.926;2022-07-29T02:23:35;14.80;99.90
17954;DHT22;9102;53.548;9.926;2022-07-29T02:26:03;14.80;99.90
17954;DHT22;9102;53.548;9.926;2022-07-29T02:28:31;14.70;99.90
17954;DHT22;9102;53.548;9.926;2022-07-29T02:31:01;14.70;99.90
17954;DHT22;9102;53.548;9.926;2022-07-29T02:33:30;14.80;99.90
17954;DHT22;9102;53.548;9.926;2022-07-29T02:35:59;14.80;99.90
17954;DHT22;9102;53.548;9.926;2022-07-29T02:38:28;14.80;99.90
17954;DHT22;9102;53.548;9.926;2022-07-29T02:41:16;14.70;99.90
17954;DHT22;9102;53.548;9.926;2022-07-29T02:43:46;14.80;99.90
17954;DHT22;9102;53.548;9.926;2022-07-29T02:46:19;14.70;99.90
17954;DHT22;9102;53.548;9.926;2022-07-29T02:48:55;14.70;99.90
17954;DHT22;9102;53.548;9.926;2022-07-29T02:51:28;14.70;99.90
17954;DHT22;9102;53.548;9.926;2022-07-29T02:53:59;14.70;99.90
17954;DHT22;9102;53.548;9.926;2022-07-29T02:56:32;14.70;99.90
17954;DHT22;9102;53.548;9.926;2022-07-29T02:59:03;14.70;99.90
17954;DHT22;9102;53.548;9.926;2022-07-29T03:01:32;14.70;99.90
17954;DHT22;9102;53.548;9.926;2022-07-29T03:04:03;14.70;99.90
17954;DHT22;9102;53.548;9.926;2022-07-29T03:06:33;14.70;99.90
17954;DHT22;9102;53.548;9.926;2022-07-29T03:09:01;14.70;99.90
17954;DHT22;9102;53.548;9.926;2022-07-29T03:11:29;14.70;99.90
17954;DHT22;9102;53.548;9.926;2022-07-29T03:13:56;14.70;99.90
17954;DHT22;9102;53.548;9.926;2022-07-29T03:16:23;14.70;99.90
17954;DHT22;9102;53.548;9.926;2022-07-29T03:18:51;14.70;99.90
17954;DHT22;9102;53.548;9.926;2022-07-29T03:21:19;14.70;99.90
17954;DHT22;9102;53.548;9.926;2022-07-29T03:23:47;14.70;99.90
17954;DHT22;9102;53.548;9.926;2022-07-29T03:26:14;14.70;99.90
17954;DHT22;9102;53.548;9.926;2022-07-29T03:28:41;14.70;99.90
17954;DHT22;9102;53.548;9.926;2022-07-29T03:31:07;14.60;99.90
17954;DHT22;9102;53.548;9.926;2022-07-29T03:33:34;14.70;99.90
17954;DHT22;9102;53.548;9.926;2022-07-29T03:36:01;14.70;99.90
17954;DHT22;9102;53.548;9.926;2022-07-29T03:38:29;14.70;99.90
17954;DHT22;9102;53.548;9.926;2022-07-29T03:41:01;14.70;99.90
17954;DHT22;9102;53.548;9.926;2022-07-29T03:43:31;14.70;99.90
17954;DHT22;9102;53.548;9.926;2022-07-29T03:46:00;14.70;99.90
17954;DHT22;9102;53.548;9.926;2022-07-29T03:48:28;14.80;99.90
17954;DHT22;9102;53.548;9.926;2022-07-29T03:50:56;14.80;99.90
17954;DHT22;9102;53.548;9.926;2022-07-29T03:53:23;14.80;99.90
17954;DHT22;9102;53.548;9.926;2022-07-29T03:55:54;14.80;99.90
17954;DHT22;9102;53.548;9.926;2022-07-29T03:58:26;14.80;99.90
17954;DHT22;9102;53.548;9.926;2022-07-29T04:00:54;14.80;99.90
17954;DHT22;9102;53.548;9.926;2022-07-29T04:03:21;14.80;99.90
17954;DHT22;9102;53.548;9.926;2022-07-29T04:05:58;14.80;99.90
17954;DHT22;9102;53.548;9.926;2022-07-29T04:08:25;14.80;99.90
17954;DHT22;9102;53.548;9.926;2022-07-29T04:10:52;14.90;99.90
17954;DHT22;9102;53.548;9.926;2022-07-29T04:13:19;14.90;99.90
17954;DHT22;9102;53.548;9.926;2022-07-29T04:15:47;14.90;99.90
17954;DHT22;9102;53.548;9.926;2022-07-29T04:18:14;14.90;99.90
17954;DHT22;9102;53.548;9.926;2022-07-29T04:20:41;14.90;99.90
17954;DHT22;9102;53.548;9.926;2022-07-29T04:23:08;15.00;99.90
17954;DHT22;9102;53.548;9.926;2022-07-29T04:25:37;15.00;99.90
17954;DHT22;9102;53.548;9.926;2022-07-29T04:28:05;15.00;99.90
17954;DHT22;9102;53.548;9.926;2022-07-29T04:30:32;15.00;99.90
17954;DHT22;9102;53.548;9.926;2022-07-29T04:33:02;15.00;99.90
17954;DHT22;9102;53.548;9.926;2022-07-29T04:35:30;15.10;99.90
17954;DHT22;9102;53.548;9.926;2022-07-29T04:37:57;15.20;99.90
17954;DHT22;9102;53.548;9.926;2022-07-29T04:40:24;15.20;99.90
17954;DHT22;9102;53.548;9.926;2022-07-29T04:42:51;15.30;99.90
17954;DHT22;9102;53.548;9.926;2022-07-29T04:45:19;15.30;99.90
17954;DHT22;9102;53.548;9.926;2022-07-29T04:47:46;15.40;99.90
17954;DHT22;9102;53.548;9.926;2022-07-29T04:50:14;15.40;99.90
17954;DHT22;9102;53.548;9.926;2022-07-29T04:52:41;15.40;99.90
17954;DHT22;9102;53.548;9.926;2022-07-29T04:55:08;15.50;99.90
17954;DHT22;9102;53.548;9.926;2022-07-29T04:57:36;15.60;99.90
17954;DHT22;9102;53.548;9.926;2022-07-29T05:00:04;15.60;99.90
17954;DHT22;9102;53.548;9.926;2022-07-29T05:02:31;15.50;99.90
17954;DHT22;9102;53.548;9.926;2022-07-29T05:04:58;15.50;99.90
17954;DHT22;9102;53.548;9.926;2022-07-29T05:07:26;15.50;99.90
17954;DHT22;9102;53.548;9.926;2022-07-29T05:09:53;15.60;99.90
17954;DHT22;9102;53.548;9.926;2022-07-29T05:12:22;15.60;99.90
17954;DHT22;9102;53.548;9.926;2022-07-29T05:14:49;15.70;99.90
17954;DHT22;9102;53.548;9.926;2022-07-29T05:17:16;15.80;99.90
17954;DHT22;9102;53.548;9.926;2022-07-29T05:19:43;15.90;99.90
17954;DHT22;9102;53.548;9.926;2022-07-29T05:22:09;16.00;99.90
17954;DHT22;9102;53.548;9.926;2022-07-29T05:24:38;16.00;99.90
17954;DHT22;9102;53.548;9.926;2022-07-29T05:27:05;16.10;99.90
17954;DHT22;9102;53.548;9.926;2022-07-29T05:29:32;16.20;99.90
17954;DHT22;9102;53.548;9.926;2022-07-29T05:31:58;16.20;99.90
17954;DHT22;9102;53.548;9.926;2022-07-29T05:34:25;16.20;99.90
17954;DHT22;9102;53.548;9.926;2022-07-29T05:36:52;16.30;99.90
17954;DHT22;9102;53.548;9.926;2022-07-29T05:39:19;16.30;99.90
17954;DHT22;9102;53.548;9.926;2022-07-29T05:41:47;16.30;99.90
17954;DHT22;9102;53.548;9.926;2022-07-29T05:44:14;16.30;99.90
17954;DHT22;9102;53.548;9.926;2022-07-29T05:46:41;16.30;99.90
17954;DHT22;9102;53.548;9.926;2022-07-29T05:49:08;16.30;99.90
17954;DHT22;9102;53.548;9.926;2022-07-29T05:51:35;16.40;99.90
17954;DHT22;9102;53.548;9.926;2022-07-29T05:54:02;16.40;99.90
17954;DHT22;9102;53.548;9.926;2022-07-29T05:56:29;16.50;99.90
17954;DHT22;9102;53.548;9.926;2022-07-29T05:58:57;16.60;99.90
17954;DHT22;9102;53.548;9.926;2022-07-29T06:01:25;16.70;99.90
17954;DHT22;9102;53.548;9.926;2022-07-29T06:03:52;16.70;99.90
17954;DHT22;9102;53.548;9.926;2022-07-29T06:06:19;16.80;99.90
17954;DHT22;9102;53.548;9.926;2022-07-29T06:08:46;16.90;99.90
17954;DHT22;9102;53.548;9.926;2022-07-29T06:11:13;17.10;99.90
17954;DHT22;9102;53.548;9.926;2022-07-29T06:13:40;17.20;99.90
17954;DHT22;9102;53.548;9.926;2022-07-29T06:16:08;17.40;99.90
17954;DHT22;9102;53.548;9.926;2022-07-29T06:18:35;17.50;99.90
17954;DHT22;9102;53.548;9.926;2022-07-29T06:21:07;17.50;99.90
17954;DHT22;9102;53.548;9.926;2022-07-29T06:23:35;17.60;99.90
17954;DHT22;9102;53.548;9.926;2022-07-29T06:26:02;17.80;99.90
17954;DHT22;9102;53.548;9.926;2022-07-29T06:28:29;17.80;99.90
17954;DHT22;9102;53.548;9.926;2022-07-29T06:30:56;17.70;99.90
17954;DHT22;9102;53.548;9.926;2022-07-29T06:33:24;17.80;99.90
17954;DHT22;9102;53.548;9.926;2022-07-29T06:35:51;17.80;99.90
17954;DHT22;9102;53.548;9.926;2022-07-29T06:38:18;17.80;99.90
17954;DHT22;9102;53.548;9.926;2022-07-29T06:40:45;17.80;99.90
17954;DHT22;9102;53.548;9.926;2022-07-29T06:43:29;17.70;99.90
17954;DHT22;9102;53.548;9.926;2022-07-29T06:45:58;17.80;99.90
17954;DHT22;9102;53.548;9.926;2022-07-29T06:48:27;17.90;99.90
17954;DHT22;9102;53.548;9.926;2022-07-29T06:50:54;18.00;99.90
17954;DHT22;9102;53.548;9.926;2022-07-29T06:53:21;18.20;99.90
17954;DHT22;9102;53.548;9.926;2022-07-29T06:55:49;18.20;99.90
17954;DHT22;9102;53.548;9.926;2022-07-29T06:58:15;18.30;99.90
17954;DHT22;9102;53.548;9.926;2022-07-29T07:00:45;18.40;99.90
17954;DHT22;9102;53.548;9.926;2022-07-29T07:03:13;18.60;99.90
17954;DHT22;9102;53.548;9.926;2022-07-29T07:05:41;18.70;99.90
17954;DHT22;9102;53.548;9.926;2022-07-29T07:08:08;18.60;99.90
17954;DHT22;9102;53.548;9.926;2022-07-29T07:10:35;18.60;99.90
17954;DHT22;9102;53.548;9.926;2022-07-29T07:13:02;18.50;99.90
17954;DHT22;9102;53.548;9.926;2022-07-29T07:15:29;18.40;99.90
17954;DHT22;9102;53.548;9.926;2022-07-29T07:17:57;18.40;99.90
17954;DHT22;9102;53.548;9.926;2022-07-29T07:20:24;18.50;99.90
17954;DHT22;9102;53.548;9.926;2022-07-29T07:22:52;18.50;99.90
17954;DHT22;9102;53.548;9.926;2022-07-29T07:25:19;18.50;99.90
17954;DHT22;9102;53.548;9.926;2022-07-29T07:27:46;18.40;99.90
17954;DHT22;9102;53.548;9.926;2022-07-29T07:30:13;18.30;99.90
17954;DHT22;9102;53.548;9.926;2022-07-29T07:32:40;18.20;99.90
17954;DHT22;9102;53.548;9.926;2022-07-29T07:35:08;18.20;99.90
17954;DHT22;9102;53.548;9.926;2022-07-29T07:37:36;18.20;99.90
17954;DHT22;9102;53.548;9.926;2022-07-29T07:40:05;18.20;99.90
17954;DHT22;9102;53.548;9.926;2022-07-29T07:42:33;18.30;99.90
17954;DHT22;9102;53.548;9.926;2022-07-29T07:45:00;18.40;99.90
17954;DHT22;9102;53.548;9.926;2022-07-29T07:47:27;18.40;99.90
17954;DHT22;9102;53.548;9.926;2022-07-29T07:49:54;18.50;99.90
17954;DHT22;9102;53.548;9.926;2022-07-29T07:52:21;18.60;99.90
17954;DHT22;9102;53.548;9.926;2022-07-29T07:54:48;18.70;99.90
17954;DHT22;9102;53.548;9.926;2022-07-29T07:57:17;18.90;99.90
17954;DHT22;9102;53.548;9.926;2022-07-29T07:59:44;19.10;99.90
17954;DHT22;9102;53.548;9.926;2022-07-29T08:02:10;19.30;99.90
17954;DHT22;9102;53.548;9.926;2022-07-29T08:04:37;19.60;99.90
17954;DHT22;9102;53.548;9.926;2022-07-29T08:07:06;19.70;99.90
17954;DHT22;9102;53.548;9.926;2022-07-29T08:09:34;19.90;99.90
17954;DHT22;9102;53.548;9.926;2022-07-29T08:12:01;20.00;99.90
17954;DHT22;9102;53.548;9.926;2022-07-29T08:14:32;20.10;99.90
17954;DHT22;9102;53.548;9.926;2022-07-29T08:16:59;20.10;99.90
17954;DHT22;9102;53.548;9.926;2022-07-29T08:19:27;20.00;99.90
17954;DHT22;9102;53.548;9.926;2022-07-29T08:21:54;20.00;99.90
17954;DHT22;9102;53.548;9.926;2022-07-29T08:24:21;20.00;99.90
17954;DHT22;9102;53.548;9.926;2022-07-29T08:27:05;19.90;99.90
17954;DHT22;9102;53.548;9.926;2022-07-29T08:29:34;20.00;99.90
17954;DHT22;9102;53.548;9.926;2022-07-29T08:32:01;20.00;99.90
17954;DHT22;9102;53.548;9.926;2022-07-29T08:34:27;20.10;99.90
17954;DHT22;9102;53.548;9.926;2022-07-29T08:36:54;20.20;99.90
17954;DHT22;9102;53.548;9.926;2022-07-29T08:39:22;20.40;99.90
17954;DHT22;9102;53.548;9.926;2022-07-29T08:41:49;20.50;99.90
17954;DHT22;9102;53.548;9.926;2022-07-29T08:44:16;20.60;99.90
17954;DHT22;9102;53.548;9.926;2022-07-29T08:46:45;20.60;99.90
17954;DHT22;9102;53.548;9.926;2022-07-29T08:49:12;20.60;99.90
17954;DHT22;9102;53.548;9.926;2022-07-29T08:51:40;20.70;99.90
17954;DHT22;9102;53.548;9.926;2022-07-29T08:54:08;20.70;99.90
17954;DHT22;9102;53.548;9.926;2022-07-29T08:56:36;20.70;99.90
17954;DHT22;9102;53.548;9.926;2022-07-29T08:59:05;20.80;99.90
17954;DHT22;9102;53.548;9.926;2022-07-29T09:01:33;20.80;99.90
17954;DHT22;9102;53.548;9.926;2022-07-29T09:04:08;20.90;99.90
17954;DHT22;9102;53.548;9.926;2022-07-29T09:06:39;21.10;99.90
17954;DHT22;9102;53.548;9.926;2022-07-29T09:09:08;21.20;99.90
17954;DHT22;9102;53.548;9.926;2022-07-29T09:11:35;21.30;99.90
17954;DHT22;9102;53.548;9.926;2022-07-29T09:14:02;21.30;99.90
17954;DHT22;9102;53.548;9.926;2022-07-29T09:16:44;21.20;99.90
17954;DHT22;9102;53.548;9.926;2022-07-29T09:19:22;21.30;99.90
17954;DHT22;9102;53.548;9.926;2022-07-29T09:21:50;21.30;99.90
17954;DHT22;9102;53.548;9.926;2022-07-29T09:24:36;21.30;99.90
17954;DHT22;9102;53.548;9.926;2022-07-29T09:27:09;21.30;99.90
17954;DHT22;9102;53.548;9.926;2022-07-29T09:29:36;21.40;99.90
17954;DHT22;9102;53.548;9.926;2022-07-29T09:32:06;21.60;99.90
17954;DHT22;9102;53.548;9.926;2022-07-29T09:34:36;21.90;99.90
17954;DHT22;9102;53.548;9.926;2022-07-29T09:37:04;22.00;99.90
17954;DHT22;9102;53.548;9.926;2022-07-29T09:39:32;22.30;99.90
17954;DHT22;9102;53.548;9.926;2022-07-29T09:42:01;22.30;99.90
17954;DHT22;9102;53.548;9.926;2022-07-29T09:44:40;22.30;99.90
17954;DHT22;9102;53.548;9.926;2022-07-29T09:47:08;22.60;99.90
17954;DHT22;9102;53.548;9.926;2022-07-29T09:49:51;22.60;99.90
17954;DHT22;9102;53.548;9.926;2022-07-29T09:52:18;22.70;99.90
17954;DHT22;9102;53.548;9.926;2022-07-29T09:54:46;22.90;99.90
17954;DHT22;9102;53.548;9.926;2022-07-29T09:57:23;23.20;99.90
17954;DHT22;9102;53.548;9.926;2022-07-29T09:59:58;23.30;99.90
17954;DHT22;9102;53.548;9.926;2022-07-29T10:02:29;23.30;99.90
17954;DHT22;9102;53.548;9.926;2022-07-29T10:04:59;23.30;99.90
17954;DHT22;9102;53.548;9.926;2022-07-29T10:07:27;23.40;99.90
17954;DHT22;9102;53.548;9.926;2022-07-29T10:10:08;23.40;99.90
17954;DHT22;9102;53.548;9.926;2022-07-29T10:12:48;23.30;99.90
17954;DHT22;9102;53.548;9.926;2022-07-29T10:15:16;23.30;99.90
17954;DHT22;9102;53.548;9.926;2022-07-29T10:17:43;23.40;99.90
17954;DHT22;9102;53.548;9.926;2022-07-29T10:20:12;23.20;99.90
17954;DHT22;9102;53.548;9.926;2022-07-29T10:22:40;23.30;99.90
17954;DHT22;9102;53.548;9.926;2022-07-29T10:25:08;23.10;99.90
17954;DHT22;9102;53.548;9.926;2022-07-29T10:27:36;23.00;99.90
17954;DHT22;9102;53.548;9.926;2022-07-29T10:30:04;23.00;99.90
17954;DHT22;9102;53.548;9.926;2022-07-29T10:32:40;22.90;99.90
17954;DHT22;9102;53.548;9.926;2022-07-29T10:35:40;22.90;99.90
17954;DHT22;9102;53.548;9.926;2022-07-29T10:38:32;23.00;99.90
17954;DHT22;9102;53.548;9.926;2022-07-29T10:41:12;23.00;99.90
17954;DHT22;9102;53.548;9.926;2022-07-29T10:43:56;23.20;99.90
17954;DHT22;9102;53.548;9.926;2022-07-29T10:46:25;23.20;99.90
17954;DHT22;9102;53.548;9.926;2022-07-29T10:49:09;23.20;99.90
17954;DHT22;9102;53.548;9.926;2022-07-29T10:52:01;23.30;99.90
17954;DHT22;9102;53.548;9.926;2022-07-29T10:54:48;23.40;99.90
17954;DHT22;9102;53.548;9.926;2022-07-29T10:57:25;23.50;99.90
17954;DHT22;9102;53.548;9.926;2022-07-29T11:00:32;23.70;99.90
17954;DHT22;9102;53.548;9.926;2022-07-29T11:02:59;24.00;99.90
17954;DHT22;9102;53.548;9.926;2022-07-29T11:05:26;24.40;99.90
17954;DHT22;9102;53.548;9.926;2022-07-29T11:08:22;24.80;99.90
17954;DHT22;9102;53.548;9.926;2022-07-29T11:13:52;25.70;98.30
17954;DHT22;9102;53.548;9.926;2022-07-29T11:16:21;25.80;97.40
17954;DHT22;9102;53.548;9.926;2022-07-29T11:19:19;25.80;97.90
17954;DHT22;9102;53.548;9.926;2022-07-29T11:21:47;25.60;97.40
17954;DHT22;9102;53.548;9.926;2022-07-29T11:24:19;25.40;97.00
17954;DHT22;9102;53.548;9.926;2022-07-29T11:27:11;25.30;97.70
17954;DHT22;9102;53.548;9.926;2022-07-29T11:29:40;25.10;97.70
17954;DHT22;9102;53.548;9.926;2022-07-29T11:32:15;24.90;98.10
17954;DHT22;9102;53.548;9.926;2022-07-29T11:34:44;25.00;97.20
17954;DHT22;9102;53.548;9.926;2022-07-29T11:37:23;24.80;97.00
17954;DHT22;9102;53.548;9.926;2022-07-29T11:40:15;24.60;98.00
17954;DHT22;9102;53.548;9.926;2022-07-29T11:42:46;24.50;98.50
17954;DHT22;9102;53.548;9.926;2022-07-29T11:45:16;24.40;98.90
17954;DHT22;9102;53.548;9.926;2022-07-29T11:47:49;24.50;97.80
17954;DHT22;9102;53.548;9.926;2022-07-29T11:50:17;24.60;98.10
17954;DHT22;9102;53.548;9.926;2022-07-29T11:52:46;24.60;97.50
17954;DHT22;9102;53.548;9.926;2022-07-29T11:55:16;24.70;97.80
17954;DHT22;9102;53.548;9.926;2022-07-29T11:57:47;24.80;97.40
17954;DHT22;9102;53.548;9.926;2022-07-29T12:00:26;24.80;97.50
17954;DHT22;9102;53.548;9.926;2022-07-29T12:02:55;25.00;97.50
17954;DHT22;9102;53.548;9.926;2022-07-29T12:05:31;25.40;97.00
17954;DHT22;9102;53.548;9.926;2022-07-29T12:08:11;25.80;96.90
17954;DHT22;9102;53.548;9.926;2022-07-29T12:10:41;25.90;94.80
17954;DHT22;9102;53.548;9.926;2022-07-29T12:13:09;25.90;95.50
17954;DHT22;9102;53.548;9.926;2022-07-29T12:15:36;25.90;94.80
17954;DHT22;9102;53.548;9.926;2022-07-29T12:18:13;25.90;94.20
17954;DHT22;9102;53.548;9.926;2022-07-29T12:20:41;25.80;94.00
17954;DHT22;9102;53.548;9.926;2022-07-29T12:23:08;25.60;94.20
17954;DHT22;9102;53.548;9.926;2022-07-29T12:25:37;25.40;94.60
17954;DHT22;9102;53.548;9.926;2022-07-29T12:28:07;25.30;95.10
17954;DHT22;9102;53.548;9.926;2022-07-29T12:30:40;25.10;94.80
17954;DHT22;9102;53.548;9.926;2022-07-29T12:33:16;24.90;95.10
17954;DHT22;9102;53.548;9.926;2022-07-29T12:35:46;24.80;94.90
17954;DHT22;9102;53.548;9.926;2022-07-29T12:38:13;24.80;94.90
17954;DHT22;9102;53.548;9.926;2022-07-29T12:40:42;24.70;95.50
17954;DHT22;9102;53.548;9.926;2022-07-29T12:43:12;24.80;96.30
17954;DHT22;9102;53.548;9.926;2022-07-29T12:45:42;24.80;95.20
17954;DHT22;9102;53.548;9.926;2022-07-29T12:48:10;24.80;95.20
17954;DHT22;9102;53.548;9.926;2022-07-29T12:50:56;24.70;95.60
17954;DHT22;9102;53.548;9.926;2022-07-29T12:53:23;24.70;95.80
17954;DHT22;9102;53.548;9.926;2022-07-29T12:55:51;24.80;96.80
17954;DHT22;9102;53.548;9.926;2022-07-29T12:58:31;24.90;96.00
17954;DHT22;9102;53.548;9.926;2022-07-29T13:01:08;25.00;95.60
17954;DHT22;9102;53.548;9.926;2022-07-29T13:03:44;25.20;95.50
17954;DHT22;9102;53.548;9.926;2022-07-29T13:06:29;25.30;95.30
17954;DHT22;9102;53.548;9.926;2022-07-29T13:09:01;25.50;94.90
17954;DHT22;9102;53.548;9.926;2022-07-29T13:11:30;25.70;94.30
17954;DHT22;9102;53.548;9.926;2022-07-29T13:13:58;25.90;93.80
17954;DHT22;9102;53.548;9.926;2022-07-29T13:16:25;25.90;93.20
17954;DHT22;9102;53.548;9.926;2022-07-29T13:19:03;25.90;92.70
17954;DHT22;9102;53.548;9.926;2022-07-29T13:21:30;26.00;92.10
17954;DHT22;9102;53.548;9.926;2022-07-29T13:23:57;26.00;91.90
17954;DHT22;9102;53.548;9.926;2022-07-29T13:26:24;25.90;92.20
17954;DHT22;9102;53.548;9.926;2022-07-29T13:28:51;25.70;92.30
17954;DHT22;9102;53.548;9.926;2022-07-29T13:31:19;25.70;91.50
17954;DHT22;9102;53.548;9.926;2022-07-29T13:33:47;25.60;91.60
17954;DHT22;9102;53.548;9.926;2022-07-29T13:36:14;25.80;91.40
17954;DHT22;9102;53.548;9.926;2022-07-29T13:38:42;25.90;91.60
17954;DHT22;9102;53.548;9.926;2022-07-29T13:41:09;25.90;91.00
17954;DHT22;9102;53.548;9.926;2022-07-29T13:43:36;25.90;92.20
17954;DHT22;9102;53.548;9.926;2022-07-29T13:46:03;26.00;91.20
17954;DHT22;9102;53.548;9.926;2022-07-29T13:48:31;26.00;90.20
17954;DHT22;9102;53.548;9.926;2022-07-29T13:50:58;25.90;89.50
17954;DHT22;9102;53.548;9.926;2022-07-29T13:53:24;25.90;91.30
17954;DHT22;9102;53.548;9.926;2022-07-29T13:55:53;25.60;95.50
17954;DHT22;9102;53.548;9.926;2022-07-29T13:58:20;25.50;96.70
17954;DHT22;9102;53.548;9.926;2022-07-29T14:00:47;25.40;97.10
17954;DHT22;9102;53.548;9.926;2022-07-29T14:03:14;25.30;97.40
17954;DHT22;9102;53.548;9.926;2022-07-29T14:05:42;25.20;97.90
17954;DHT22;9102;53.548;9.926;2022-07-29T14:08:09;25.20;98.50
17954;DHT22;9102;53.548;9.926;2022-07-29T14:10:36;25.30;99.10
17954;DHT22;9102;53.548;9.926;2022-07-29T14:13:03;25.20;99.20
17954;DHT22;9102;53.548;9.926;2022-07-29T14:15:30;25.00;99.80
17954;DHT22;9102;53.548;9.926;2022-07-29T14:17:57;24.60;99.90
17954;DHT22;9102;53.548;9.926;2022-07-29T14:20:23;24.40;99.90
17954;DHT22;9102;53.548;9.926;2022-07-29T14:22:52;24.20;99.90
17954;DHT22;9102;53.548;9.926;2022-07-29T14:25:21;24.20;99.90
17954;DHT22;9102;53.548;9.926;2022-07-29T14:27:48;24.10;99.90
17954;DHT22;9102;53.548;9.926;2022-07-29T14:30:15;24.20;99.90
17954;DHT22;9102;53.548;9.926;2022-07-29T14:32:42;24.30;99.90
17954;DHT22;9102;53.548;9.926;2022-07-29T14:35:08;24.30;99.90
17954;DHT22;9102;53.548;9.926;2022-07-29T14:37:36;24.40;99.90
17954;DHT22;9102;53.548;9.926;2022-07-29T14:40:05;24.30;99.90
17954;DHT22;9102;53.548;9.926;2022-07-29T14:42:32;24.40;99.90
17954;DHT22;9102;53.548;9.926;2022-07-29T14:44:59;24.50;99.90
17954;DHT22;9102;53.548;9.926;2022-07-29T14:47:25;24.60;99.90
17954;DHT22;9102;53.548;9.926;2022-07-29T14:49:52;24.50;99.90
17954;DHT22;9102;53.548;9.926;2022-07-29T14:52:19;24.50;99.90
17954;DHT22;9102;53.548;9.926;2022-07-29T14:54:46;24.50;99.90
17954;DHT22;9102;53.548;9.926;2022-07-29T14:57:14;24.40;99.90
17954;DHT22;9102;53.548;9.926;2022-07-29T14:59:41;24.30;99.90
17954;DHT22;9102;53.548;9.926;2022-07-29T15:02:08;24.10;99.90
17954;DHT22;9102;53.548;9.926;2022-07-29T15:04:35;24.00;99.90
17954;DHT22;9102;53.548;9.926;2022-07-29T15:07:02;23.90;99.90
17954;DHT22;9102;53.548;9.926;2022-07-29T15:09:29;23.80;99.90
17954;DHT22;9102;53.548;9.926;2022-07-29T15:11:56;23.80;99.90
17954;DHT22;9102;53.548;9.926;2022-07-29T15:14:24;23.80;99.90
17954;DHT22;9102;53.548;9.926;2022-07-29T15:16:51;23.90;99.90
17954;DHT22;9102;53.548;9.926;2022-07-29T15:19:18;23.70;99.90
17954;DHT22;9102;53.548;9.926;2022-07-29T15:21:45;23.60;99.90
17954;DHT22;9102;53.548;9.926;2022-07-29T15:24:11;23.50;99.90
17954;DHT22;9102;53.548;9.926;2022-07-29T15:26:38;23.50;99.90
17954;DHT22;9102;53.548;9.926;2022-07-29T15:29:05;23.50;99.90
17954;DHT22;9102;53.548;9.926;2022-07-29T15:31:33;23.60;99.90
17954;DHT22;9102;53.548;9.926;2022-07-29T15:34:00;23.60;99.90
17954;DHT22;9102;53.548;9.926;2022-07-29T15:36:27;23.70;99.90
17954;DHT22;9102;53.548;9.926;2022-07-29T15:38:54;23.80;99.90
17954;DHT22;9102;53.548;9.926;2022-07-29T15:41:22;23.90;99.90
17954;DHT22;9102;53.548;9.926;2022-07-29T15:43:49;23.90;99.90
17954;DHT22;9102;53.548;9.926;2022-07-29T15:46:18;23.80;99.90
17954;DHT22;9102;53.548;9.926;2022-07-29T15:49:05;23.80;99.90
17954;DHT22;9102;53.548;9.926;2022-07-29T15:51:32;23.80;99.90
17954;DHT22;9102;53.548;9.926;2022-07-29T15:54:01;23.90;99.90
17954;DHT22;9102;53.548;9.926;2022-07-29T15:56:28;23.90;99.90
17954;DHT22;9102;53.548;9.926;2022-07-29T15:58:55;23.90;99.90
17954;DHT22;9102;53.548;9.926;2022-07-29T16:01:22;23.80;99.90
17954;DHT22;9102;53.548;9.926;2022-07-29T16:03:50;23.70;99.90